Time;durP1;ratioP1;P1;durP2;ratioP2;P2;SDS_P1;SDS_P2;PMS_P1;PMS_P2;Temp;Humidity;BMP_temperature;BMP_pressure;BME280_temperature;BME280_humidity;BME280_pressure;Samples;Min_cycle;Max_cycle;Signal;HPM_P1;HPM_P2
2023/12/04 00:01:17;;;;;;;15.17;8.63;;;;;;;;;;5042548;28;20207;-72
2023/12/04 00:03:44;;;;;;;13.80;9.07;;;;;;;;;;5042763;28;20268;-72
2023/12/04 00:06:12;;;;;;;15.10;9.53;;;;;;;;;;5024528;28;20205;-74
2023/12/04 00:08:39;;;;;;;13.70;8.97;;;;;;;;;;5016923;28;20264;-72
2023/12/04 00:11:07;;;;;;;15.33;9.07;;;;;;;;;;5046923;28;20202;-72
2023/12/04 00:13:34;;;;;;;15.67;10.20;;;;;;;;;;5039749;28;20214;-71
2023/12/04 00:16:02;;;;;;;14.13;8.90;;;;;;;;;;5038248;28;20206;-71
2023/12/04 00:18:29;;;;;;;15.43;8.80;;;;;;;;;;5040942;28;20223;-71
2023/12/04 00:20:57;;;;;;;13.70;8.57;;;;;;;;;;5038774;28;20199;-71
2023/12/04 00:23:24;;;;;;;15.17;9.10;;;;;;;;;;5039757;28;20223;-73
2023/12/04 00:25:51;;;;;;;13.33;8.57;;;;;;;;;;5028389;28;20280;-72
2023/12/04 00:28:19;;;;;;;13.57;8.47;;;;;;;;;;5038644;28;20226;-73
2023/12/04 00:30:46;;;;;;;13.23;8.20;;;;;;;;;;5038709;28;20242;-73
2023/12/04 00:33:13;;;;;;;16.50;8.97;;;;;;;;;;5037116;28;20203;-72
2023/12/04 00:35:41;;;;;;;14.80;8.50;;;;;;;;;;5050614;28;20280;-72
2023/12/04 00:38:08;;;;;;;14.30;8.63;;;;;;;;;;5046403;28;20236;-71
2023/12/04 00:40:35;;;;;;;13.00;8.20;;;;;;;;;;5036894;28;20670;-71
2023/12/04 00:43:02;;;;;;;14.70;8.73;;;;;;;;;;5044909;28;20202;-71
2023/12/04 00:45:30;;;;;;;12.97;8.27;;;;;;;;;;5035039;28;20283;-71
2023/12/04 00:47:57;;;;;;;15.30;8.50;;;;;;;;;;5042585;28;20223;-72
2023/12/04 00:50:25;;;;;;;14.40;8.23;;;;;;;;;;5022847;28;20293;-71
2023/12/04 00:52:52;;;;;;;13.20;8.70;;;;;;;;;;5046721;28;20228;-73
2023/12/04 00:55:19;;;;;;;13.13;8.03;;;;;;;;;;5023209;28;20271;-72
2023/12/04 00:57:47;;;;;;;13.83;8.27;;;;;;;;;;5038201;28;20221;-73
2023/12/04 01:00:14;;;;;;;16.40;9.13;;;;;;;;;;5039310;28;20221;-70
2023/12/04 01:02:42;;;;;;;18.33;9.77;;;;;;;;;;5045163;28;20967;-73
2023/12/04 01:05:10;;;;;;;15.83;9.23;;;;;;;;;;5045078;28;20604;-71
2023/12/04 01:07:37;;;;;;;14.07;8.20;;;;;;;;;;5042314;28;20227;-72
2023/12/04 01:10:05;;;;;;;17.83;8.63;;;;;;;;;;5034714;28;20205;-73
2023/12/04 01:12:33;;;;;;;17.80;9.00;;;;;;;;;;5040407;28;20304;-71
2023/12/04 01:15:01;;;;;;;12.30;8.43;;;;;;;;;;5035747;28;20678;-75
2023/12/04 01:17:29;;;;;;;14.23;8.43;;;;;;;;;;5035203;28;20238;-72
2023/12/04 01:19:57;;;;;;;17.77;8.57;;;;;;;;;;5030603;28;20292;-71
2023/12/04 01:22:25;;;;;;;14.90;8.63;;;;;;;;;;5040689;28;20203;-72
2023/12/04 01:24:52;;;;;;;14.83;9.33;;;;;;;;;;5023434;28;20292;-71
2023/12/04 01:27:19;;;;;;;13.73;8.37;;;;;;;;;;5019728;28;20646;-71
2023/12/04 01:29:46;;;;;;;13.70;8.60;;;;;;;;;;5035927;28;20209;-71
2023/12/04 01:32:14;;;;;;;12.53;8.00;;;;;;;;;;5035573;28;20203;-71
2023/12/04 01:34:41;;;;;;;13.70;8.37;;;;;;;;;;5041119;28;20224;-72
2023/12/04 01:37:08;;;;;;;11.97;7.60;;;;;;;;;;5039015;28;20576;-71
2023/12/04 01:39:36;;;;;;;13.93;7.93;;;;;;;;;;5037858;28;20203;-71
2023/12/04 01:42:03;;;;;;;15.13;8.20;;;;;;;;;;5041828;28;20241;-73
2023/12/04 01:44:31;;;;;;;11.47;7.50;;;;;;;;;;5032816;28;20222;-72
2023/12/04 01:46:58;;;;;;;11.57;7.33;;;;;;;;;;5038699;28;20741;-71
2023/12/04 01:49:25;;;;;;;12.57;7.73;;;;;;;;;;5040811;28;20620;-72
2023/12/04 01:51:53;;;;;;;13.17;7.93;;;;;;;;;;5021461;28;20233;-73
2023/12/04 01:54:21;;;;;;;11.93;8.03;;;;;;;;;;5040281;28;20651;-74
2023/12/04 01:56:49;;;;;;;13.47;7.53;;;;;;;;;;5041483;28;20635;-73
2023/12/04 01:59:16;;;;;;;14.43;8.33;;;;;;;;;;5032379;28;20701;-71
2023/12/04 02:01:44;;;;;;;13.17;7.87;;;;;;;;;;5039216;28;20209;-75
2023/12/04 02:04:12;;;;;;;14.43;7.70;;;;;;;;;;5040991;28;20201;-71
2023/12/04 02:06:40;;;;;;;13.27;8.27;;;;;;;;;;5039242;28;20637;-71
2023/12/04 02:09:12;;;;;;;15.13;8.67;;;;;;;;;;5044273;28;20218;-71
2023/12/04 02:11:40;;;;;;;14.70;7.37;;;;;;;;;;5044843;28;20226;-71
2023/12/04 02:14:07;;;;;;;28.93;15.10;;;;;;;;;;5033989;28;20203;-70
2023/12/04 02:16:37;;;;;;;14.13;8.90;;;;;;;;;;5032280;28;20207;-71
2023/12/04 02:19:05;;;;;;;16.77;8.37;;;;;;;;;;5036104;28;20230;-72
2023/12/04 02:21:32;;;;;;;14.57;9.00;;;;;;;;;;5035051;28;20202;-73
2023/12/04 02:23:59;;;;;;;14.20;8.70;;;;;;;;;;5037989;28;20242;-72
2023/12/04 02:26:31;;;;;;;15.90;9.63;;;;;;;;;;5030038;28;20226;-73
2023/12/04 02:28:59;;;;;;;15.70;9.50;;;;;;;;;;5034646;28;20275;-71
2023/12/04 02:31:28;;;;;;;13.07;8.50;;;;;;;;;;5026766;28;21087;-72
2023/12/04 02:33:56;;;;;;;13.07;8.03;;;;;;;;;;5035664;28;20201;-71
2023/12/04 02:36:25;;;;;;;15.43;8.63;;;;;;;;;;5038717;28;20719;-71
2023/12/04 02:38:53;;;;;;;12.97;7.80;;;;;;;;;;5018214;28;20227;-75
2023/12/04 02:41:20;;;;;;;16.40;8.33;;;;;;;;;;5027378;28;20214;-72
2023/12/04 02:43:47;;;;;;;13.47;8.13;;;;;;;;;;5036825;28;20203;-70
2023/12/04 02:46:15;;;;;;;15.60;8.90;;;;;;;;;;5030931;28;20276;-71
2023/12/04 02:48:42;;;;;;;14.93;9.10;;;;;;;;;;5033003;28;20619;-74
2023/12/04 02:51:11;;;;;;;17.43;10.70;;;;;;;;;;5017110;28;20214;-72
2023/12/04 02:53:38;;;;;;;15.53;9.03;;;;;;;;;;5037149;28;20210;-72
2023/12/04 02:56:05;;;;;;;18.33;9.77;;;;;;;;;;5017955;28;20629;-72
2023/12/04 02:58:34;;;;;;;15.97;9.07;;;;;;;;;;5041001;28;20219;-72
2023/12/04 03:01:01;;;;;;;16.67;9.47;;;;;;;;;;5047269;28;20198;-71
2023/12/04 03:03:29;;;;;;;14.90;8.07;;;;;;;;;;5040626;28;21309;-72
2023/12/04 03:05:56;;;;;;;12.00;7.80;;;;;;;;;;5043229;28;20223;-71
2023/12/04 03:08:23;;;;;;;17.57;10.13;;;;;;;;;;5030471;28;20279;-71
2023/12/04 03:10:51;;;;;;;18.23;10.43;;;;;;;;;;5034805;28;20619;-73
2023/12/04 03:13:18;;;;;;;16.73;9.57;;;;;;;;;;5031969;28;20206;-72
2023/12/04 03:15:45;;;;;;;13.83;8.00;;;;;;;;;;5031802;28;20752;-73
2023/12/04 03:18:12;;;;;;;12.70;7.27;;;;;;;;;;5035967;28;20226;-73
2023/12/04 03:20:40;;;;;;;12.17;8.13;;;;;;;;;;5037394;28;20295;-71
2023/12/04 03:23:07;;;;;;;11.37;7.70;;;;;;;;;;5033749;28;20225;-71
2023/12/04 03:25:35;;;;;;;13.70;8.10;;;;;;;;;;5040135;28;20238;-72
2023/12/04 03:28:02;;;;;;;13.93;8.13;;;;;;;;;;5042254;28;20721;-73
2023/12/04 03:30:29;;;;;;;12.70;7.73;;;;;;;;;;5034174;28;20238;-73
2023/12/04 03:32:57;;;;;;;12.03;7.23;;;;;;;;;;5033991;28;20257;-72
2023/12/04 03:35:25;;;;;;;11.20;7.17;;;;;;;;;;5022087;28;20238;-71
2023/12/04 03:37:52;;;;;;;9.50;6.63;;;;;;;;;;5023953;28;20233;-76
2023/12/04 03:40:19;;;;;;;8.97;6.57;;;;;;;;;;5029340;28;20203;-75
2023/12/04 03:42:46;;;;;;;10.20;6.60;;;;;;;;;;5043655;28;20209;-71
2023/12/04 03:45:14;;;;;;;11.00;6.57;;;;;;;;;;5034591;28;20319;-71
2023/12/04 03:47:41;;;;;;;13.77;7.90;;;;;;;;;;5038008;28;20725;-76
2023/12/04 03:50:09;;;;;;;11.77;7.67;;;;;;;;;;5039630;28;20200;-70
2023/12/04 03:52:36;;;;;;;12.23;7.80;;;;;;;;;;5031522;28;20208;-71
2023/12/04 03:55:03;;;;;;;13.43;8.23;;;;;;;;;;5039198;28;20205;-72
2023/12/04 03:57:31;;;;;;;15.30;9.23;;;;;;;;;;5024353;28;20235;-73
2023/12/04 03:59:58;;;;;;;12.17;7.90;;;;;;;;;;5014444;28;20268;-72
2023/12/04 04:02:25;;;;;;;16.23;9.80;;;;;;;;;;5041478;28;20344;-71
2023/12/04 04:04:52;;;;;;;14.60;8.00;;;;;;;;;;5048388;28;20280;-73
2023/12/04 04:07:20;;;;;;;15.17;8.30;;;;;;;;;;5046629;28;20218;-74
2023/12/04 04:09:47;;;;;;;12.00;7.93;;;;;;;;;;5041499;28;20198;-72
2023/12/04 04:12:15;;;;;;;15.53;8.60;;;;;;;;;;5036086;28;20282;-72
2023/12/04 04:14:42;;;;;;;11.50;7.90;;;;;;;;;;5030872;28;20657;-72
2023/12/04 04:17:09;;;;;;;11.77;7.20;;;;;;;;;;5036712;28;20194;-72
2023/12/04 04:19:36;;;;;;;15.00;8.77;;;;;;;;;;5026491;28;20199;-72
2023/12/04 04:22:04;;;;;;;11.10;7.37;;;;;;;;;;5041803;28;20202;-72
2023/12/04 04:24:31;;;;;;;13.70;8.63;;;;;;;;;;5042796;28;20309;-72
2023/12/04 04:26:58;;;;;;;14.13;8.47;;;;;;;;;;5047313;28;20237;-72
2023/12/04 04:29:26;;;;;;;15.77;8.63;;;;;;;;;;5042730;28;20206;-72
2023/12/04 04:31:53;;;;;;;17.90;9.47;;;;;;;;;;5027589;28;20207;-71
2023/12/04 04:34:23;;;;;;;14.63;8.27;;;;;;;;;;5043526;28;20198;-73
2023/12/04 04:36:51;;;;;;;14.50;8.57;;;;;;;;;;5024059;28;20207;-74
2023/12/04 04:39:18;;;;;;;12.03;7.53;;;;;;;;;;5038629;28;20214;-73
2023/12/04 04:41:46;;;;;;;11.30;7.53;;;;;;;;;;5033970;28;20250;-73
2023/12/04 04:44:13;;;;;;;12.43;7.87;;;;;;;;;;5036788;28;20199;-72
2023/12/04 04:46:40;;;;;;;12.47;8.23;;;;;;;;;;5045565;28;20242;-74
2023/12/04 04:49:08;;;;;;;12.93;7.80;;;;;;;;;;5044434;28;20686;-73
2023/12/04 04:51:35;;;;;;;14.73;8.83;;;;;;;;;;5032926;28;20198;-74
2023/12/04 04:54:03;;;;;;;12.20;7.70;;;;;;;;;;5026363;28;20939;-74
2023/12/04 04:56:30;;;;;;;17.87;8.47;;;;;;;;;;5031003;28;20214;-73
2023/12/04 04:58:58;;;;;;;14.30;8.37;;;;;;;;;;5039180;28;20275;-71
2023/12/04 05:01:25;;;;;;;14.93;8.53;;;;;;;;;;5032927;28;20205;-73
2023/12/04 05:03:52;;;;;;;11.30;7.90;;;;;;;;;;5034175;28;20250;-71
2023/12/04 05:06:22;;;;;;;10.53;7.37;;;;;;;;;;5026850;28;20247;-72
2023/12/04 05:08:52;;;;;;;12.77;8.10;;;;;;;;;;5035574;28;20273;-72
2023/12/04 05:11:19;;;;;;;13.83;8.30;;;;;;;;;;5033321;28;20204;-74
2023/12/04 05:13:47;;;;;;;12.20;8.03;;;;;;;;;;5036081;28;20280;-73
2023/12/04 05:16:14;;;;;;;21.30;12.50;;;;;;;;;;5037125;28;20199;-70
2023/12/04 05:18:42;;;;;;;12.93;8.80;;;;;;;;;;5029765;28;20222;-72
2023/12/04 05:21:10;;;;;;;25.60;13.47;;;;;;;;;;5043764;28;20233;-72
2023/12/04 05:23:37;;;;;;;39.30;19.87;;;;;;;;;;5034548;28;20691;-71
2023/12/04 05:26:05;;;;;;;20.83;12.50;;;;;;;;;;5029071;28;20272;-72
2023/12/04 05:28:34;;;;;;;10.53;7.40;;;;;;;;;;5029383;28;20230;-70
2023/12/04 05:31:01;;;;;;;12.80;8.53;;;;;;;;;;5019038;28;20201;-71
2023/12/04 05:33:29;;;;;;;13.93;8.97;;;;;;;;;;5018275;28;20268;-73
2023/12/04 05:35:57;;;;;;;13.13;8.07;;;;;;;;;;5030897;28;20210;-73
2023/12/04 05:38:26;;;;;;;12.60;8.37;;;;;;;;;;5045696;28;20744;-72
2023/12/04 05:40:54;;;;;;;16.67;9.80;;;;;;;;;;5037516;28;20312;-73
2023/12/04 05:43:23;;;;;;;13.07;8.43;;;;;;;;;;5044640;28;20294;-72
2023/12/04 05:45:51;;;;;;;15.07;8.70;;;;;;;;;;5026639;28;20223;-71
2023/12/04 05:48:21;;;;;;;11.43;7.67;;;;;;;;;;5039403;28;20230;-75
2023/12/04 05:50:49;;;;;;;14.70;9.83;;;;;;;;;;5046995;28;20215;-72
2023/12/04 05:53:18;;;;;;;14.07;8.20;;;;;;;;;;5044886;28;20198;-72
2023/12/04 05:55:46;;;;;;;10.80;7.80;;;;;;;;;;5039128;28;20203;-72
2023/12/04 05:58:14;;;;;;;10.47;7.90;;;;;;;;;;5035993;28;20217;-73
2023/12/04 06:00:42;;;;;;;13.60;9.10;;;;;;;;;;5029773;28;20219;-72
2023/12/04 06:03:09;;;;;;;12.40;9.63;;;;;;;;;;5040745;28;20206;-70
2023/12/04 06:05:37;;;;;;;15.33;10.03;;;;;;;;;;5033348;28;20270;-71
2023/12/04 06:08:05;;;;;;;15.33;9.70;;;;;;;;;;5031648;28;20221;-72
2023/12/04 06:10:39;;;;;;;13.80;8.20;;;;;;;;;;5043235;28;20220;-71
2023/12/04 06:13:09;;;;;;;12.87;8.60;;;;;;;;;;5036702;28;20206;-72
2023/12/04 06:15:37;;;;;;;12.73;8.43;;;;;;;;;;5033794;28;20218;-71
2023/12/04 06:18:04;;;;;;;14.90;9.47;;;;;;;;;;5033044;28;20229;-73
2023/12/04 06:20:32;;;;;;;15.07;9.30;;;;;;;;;;5015723;28;20211;-71
2023/12/04 06:22:59;;;;;;;16.07;9.57;;;;;;;;;;5042431;28;20202;-72
2023/12/04 06:25:27;;;;;;;16.33;9.37;;;;;;;;;;5032658;28;20929;-72
2023/12/04 06:27:54;;;;;;;14.23;8.60;;;;;;;;;;5034773;28;20766;-72
2023/12/04 06:30:22;;;;;;;14.03;8.83;;;;;;;;;;5018743;28;20710;-72
2023/12/04 06:32:49;;;;;;;13.73;8.13;;;;;;;;;;5035092;28;20728;-72
2023/12/04 06:35:17;;;;;;;14.23;8.50;;;;;;;;;;5046670;28;20193;-73
2023/12/04 06:37:47;;;;;;;18.17;10.20;;;;;;;;;;5020308;28;20712;-74
2023/12/04 06:40:15;;;;;;;15.40;9.50;;;;;;;;;;5033578;28;20194;-71
2023/12/04 06:42:42;;;;;;;15.67;9.17;;;;;;;;;;5023582;28;20293;-71
2023/12/04 06:45:10;;;;;;;17.23;9.93;;;;;;;;;;5031473;28;20297;-72
2023/12/04 06:47:41;;;;;;;16.57;10.00;;;;;;;;;;5027745;28;21243;-70
2023/12/04 06:50:08;;;;;;;17.87;10.33;;;;;;;;;;5031609;28;20202;-71
2023/12/04 06:52:36;;;;;;;19.37;10.40;;;;;;;;;;5038908;28;20213;-71
2023/12/04 06:55:03;;;;;;;19.53;12.07;;;;;;;;;;5047095;28;20594;-74
2023/12/04 06:57:30;;;;;;;31.00;21.17;;;;;;;;;;5041712;28;20221;-71
2023/12/04 06:59:58;;;;;;;20.00;11.83;;;;;;;;;;5048753;28;20198;-70
2023/12/04 07:02:25;;;;;;;19.57;11.00;;;;;;;;;;5042425;28;20204;-71
2023/12/04 07:04:53;;;;;;;15.77;10.10;;;;;;;;;;5041193;28;20210;-71
2023/12/04 07:07:21;;;;;;;25.40;14.93;;;;;;;;;;5055193;28;20366;-71
2023/12/04 07:09:48;;;;;;;20.07;11.97;;;;;;;;;;5037065;28;20199;-71
2023/12/04 07:12:16;;;;;;;17.00;10.80;;;;;;;;;;5037706;28;20254;-70
2023/12/04 07:14:43;;;;;;;16.63;10.67;;;;;;;;;;5048832;28;20214;-72
2023/12/04 07:17:11;;;;;;;22.57;16.40;;;;;;;;;;5035050;28;20201;-71
2023/12/04 07:19:38;;;;;;;21.00;13.03;;;;;;;;;;5030515;28;20233;-73
2023/12/04 07:22:06;;;;;;;19.63;10.40;;;;;;;;;;5041080;28;20202;-71
2023/12/04 07:24:33;;;;;;;17.27;10.93;;;;;;;;;;5032627;28;20224;-72
2023/12/04 07:27:01;;;;;;;19.03;11.43;;;;;;;;;;5037845;28;21100;-71
2023/12/04 07:29:28;;;;;;;17.10;10.27;;;;;;;;;;5027384;28;20211;-72
2023/12/04 07:31:56;;;;;;;19.33;10.77;;;;;;;;;;5018842;28;20302;-74
2023/12/04 07:34:23;;;;;;;18.47;11.60;;;;;;;;;;5047484;28;20552;-71
2023/12/04 07:36:50;;;;;;;20.20;11.77;;;;;;;;;;5018214;28;20203;-72
2023/12/04 07:39:18;;;;;;;21.33;12.60;;;;;;;;;;5037781;28;20435;-71
2023/12/04 07:41:45;;;;;;;18.10;11.97;;;;;;;;;;5046933;28;20203;-71
2023/12/04 07:44:12;;;;;;;26.73;14.77;;;;;;;;;;5035623;28;20221;-71
2023/12/04 07:46:39;;;;;;;37.00;20.10;;;;;;;;;;5018501;28;20961;-71
2023/12/04 07:49:07;;;;;;;21.13;11.47;;;;;;;;;;5044082;28;20227;-71
2023/12/04 07:51:34;;;;;;;31.70;16.87;;;;;;;;;;5040582;28;20205;-72
2023/12/04 07:54:01;;;;;;;28.53;16.20;;;;;;;;;;5046535;28;20665;-74
2023/12/04 07:56:30;;;;;;;20.57;11.37;;;;;;;;;;5047780;28;20209;-72
2023/12/04 07:58:58;;;;;;;19.03;11.03;;;;;;;;;;5028639;28;20258;-71
2023/12/04 08:01:25;;;;;;;17.77;9.80;;;;;;;;;;5020577;28;20209;-73
2023/12/04 08:03:52;;;;;;;21.20;11.80;;;;;;;;;;5031076;28;20210;-72
2023/12/04 08:06:20;;;;;;;19.37;10.83;;;;;;;;;;5031826;28;20672;-76
2023/12/04 08:08:47;;;;;;;18.13;10.50;;;;;;;;;;5035267;28;20267;-73
2023/12/04 08:11:14;;;;;;;23.93;12.00;;;;;;;;;;5050813;28;20204;-72
2023/12/04 08:13:42;;;;;;;22.70;11.57;;;;;;;;;;5027597;28;20216;-70
2023/12/04 08:16:15;;;;;;;20.30;11.03;;;;;;;;;;5020913;28;20209;-71
2023/12/04 08:18:43;;;;;;;25.83;12.33;;;;;;;;;;5040603;28;20337;-73
2023/12/04 08:21:11;;;;;;;20.00;10.93;;;;;;;;;;5037807;28;20277;-73
2023/12/04 08:23:39;;;;;;;20.10;11.03;;;;;;;;;;5047526;28;20716;-73
2023/12/04 08:26:06;;;;;;;17.67;10.37;;;;;;;;;;5044680;28;20228;-69
2023/12/04 08:28:35;;;;;;;26.77;12.80;;;;;;;;;;5030372;28;20217;-72
2023/12/04 08:31:04;;;;;;;25.67;13.10;;;;;;;;;;5034851;28;20260;-72
2023/12/04 08:33:31;;;;;;;31.63;16.50;;;;;;;;;;5036873;28;20213;-72
2023/12/04 08:35:58;;;;;;;20.53;11.83;;;;;;;;;;5040162;28;20323;-70
2023/12/04 08:38:26;;;;;;;21.77;13.20;;;;;;;;;;5024328;28;20228;-71
2023/12/04 08:40:53;;;;;;;21.63;12.47;;;;;;;;;;5027297;28;20277;-70
2023/12/04 08:43:21;;;;;;;20.17;11.13;;;;;;;;;;5045968;28;20241;-72
2023/12/04 08:45:48;;;;;;;19.13;11.33;;;;;;;;;;5041475;28;20207;-72
2023/12/04 08:48:15;;;;;;;20.87;12.80;;;;;;;;;;5038550;28;20228;-70
2023/12/04 08:50:43;;;;;;;21.17;12.57;;;;;;;;;;5034188;28;20202;-71
2023/12/04 08:53:11;;;;;;;23.20;14.10;;;;;;;;;;5017219;28;20234;-72
2023/12/04 08:55:38;;;;;;;31.37;16.93;;;;;;;;;;5036070;28;20277;-73
2023/12/04 08:58:05;;;;;;;25.27;14.47;;;;;;;;;;5046560;28;21508;-75
2023/12/04 09:00:35;;;;;;;26.93;16.50;;;;;;;;;;5040911;28;20203;-71
2023/12/04 09:03:03;;;;;;;22.10;12.60;;;;;;;;;;5035122;28;20598;-72
2023/12/04 09:05:39;;;;;;;22.73;13.20;;;;;;;;;;5030648;28;20275;-71
2023/12/04 09:08:07;;;;;;;26.63;15.23;;;;;;;;;;5036887;28;20226;-70
2023/12/04 09:10:37;;;;;;;28.87;16.83;;;;;;;;;;5046519;28;22326;-70
2023/12/04 09:13:24;;;;;;;22.37;13.33;;;;;;;;;;5030297;28;20216;-71
2023/12/04 09:15:51;;;;;;;17.80;11.13;;;;;;;;;;5035604;28;20650;-73
2023/12/04 09:18:19;;;;;;;17.77;11.57;;;;;;;;;;5034320;28;20228;-72
2023/12/04 09:20:47;;;;;;;18.07;11.20;;;;;;;;;;5031688;28;20209;-70
2023/12/04 09:23:14;;;;;;;16.13;10.80;;;;;;;;;;5033339;28;20206;-76
2023/12/04 09:25:41;;;;;;;15.43;10.10;;;;;;;;;;5033395;28;20268;-75
2023/12/04 09:28:09;;;;;;;17.17;10.57;;;;;;;;;;5043386;28;20237;-72
2023/12/04 09:30:39;;;;;;;13.73;9.80;;;;;;;;;;5040240;28;20665;-72
2023/12/04 09:33:07;;;;;;;19.60;10.90;;;;;;;;;;5042500;28;20251;-71
2023/12/04 09:35:34;;;;;;;20.43;12.07;;;;;;;;;;5031146;28;20211;-74
2023/12/04 09:38:02;;;;;;;35.13;17.87;;;;;;;;;;5032135;28;20230;-71
2023/12/04 09:40:29;;;;;;;30.50;15.70;;;;;;;;;;5045660;28;20210;-72
2023/12/04 09:42:58;;;;;;;20.20;12.10;;;;;;;;;;5044053;28;20293;-72
2023/12/04 09:45:25;;;;;;;22.40;12.50;;;;;;;;;;5050858;28;20216;-71
2023/12/04 09:47:53;;;;;;;22.00;12.33;;;;;;;;;;5045361;28;20241;-71
2023/12/04 09:50:22;;;;;;;25.20;14.07;;;;;;;;;;5036617;28;20682;-71
2023/12/04 09:52:50;;;;;;;24.90;13.20;;;;;;;;;;5028430;28;20604;-72
2023/12/04 09:55:18;;;;;;;26.80;14.87;;;;;;;;;;5039042;28;20207;-71
2023/12/04 09:57:46;;;;;;;31.93;16.47;;;;;;;;;;5038066;28;20225;-71
2023/12/04 10:00:14;;;;;;;61.00;28.50;;;;;;;;;;5039465;28;20639;-70
2023/12/04 10:02:42;;;;;;;68.80;32.97;;;;;;;;;;5029763;28;20245;-73
2023/12/04 10:05:10;;;;;;;25.47;14.60;;;;;;;;;;5039894;28;20206;-72
2023/12/04 10:07:37;;;;;;;25.23;14.63;;;;;;;;;;5020602;28;20659;-73
2023/12/04 10:10:08;;;;;;;28.00;15.53;;;;;;;;;;5038401;28;20203;-72
2023/12/04 10:12:36;;;;;;;22.70;13.90;;;;;;;;;;5039566;28;20583;-72
2023/12/04 10:15:11;;;;;;;23.57;14.47;;;;;;;;;;5042921;28;20553;-72
2023/12/04 10:17:43;;;;;;;20.17;12.47;;;;;;;;;;5039790;28;20254;-72
2023/12/04 10:20:11;;;;;;;17.00;10.63;;;;;;;;;;5031609;28;20218;-71
2023/12/04 10:22:59;;;;;;;17.00;10.00;;;;;;;;;;5022097;28;20214;-75
2023/12/04 10:25:31;;;;;;;20.67;12.70;;;;;;;;;;5022267;28;20323;-70
2023/12/04 10:28:09;;;;;;;19.20;12.43;;;;;;;;;;5030318;28;20619;-70
2023/12/04 10:30:36;;;;;;;17.03;10.77;;;;;;;;;;5020355;28;20200;-72
2023/12/04 10:33:05;;;;;;;15.30;10.50;;;;;;;;;;5046235;28;20579;-74
2023/12/04 10:35:38;;;;;;;15.43;10.23;;;;;;;;;;5043727;28;20210;-71
2023/12/04 10:38:06;;;;;;;14.37;10.20;;;;;;;;;;5018974;28;20233;-73
2023/12/04 10:40:36;;;;;;;16.03;10.37;;;;;;;;;;5037307;28;20293;-71
2023/12/04 10:43:12;;;;;;;17.10;10.23;;;;;;;;;;5041868;28;20297;-71
2023/12/04 10:45:40;;;;;;;15.97;11.07;;;;;;;;;;5034944;28;20320;-74
2023/12/04 10:48:09;;;;;;;15.53;10.70;;;;;;;;;;5012719;28;20234;-70
2023/12/04 10:50:40;;;;;;;16.93;9.63;;;;;;;;;;5043132;28;20708;-71
2023/12/04 10:53:09;;;;;;;15.53;10.70;;;;;;;;;;5034061;28;20201;-71
2023/12/04 10:55:37;;;;;;;14.10;9.77;;;;;;;;;;5038416;28;20205;-72
2023/12/04 10:58:27;;;;;;;13.57;9.47;;;;;;;;;;5033020;28;20231;-73
2023/12/04 11:00:56;;;;;;;15.73;10.83;;;;;;;;;;5034734;28;20211;-72
2023/12/04 11:03:29;;;;;;;14.83;9.97;;;;;;;;;;5035814;28;20206;-72
2023/12/04 11:06:04;;;;;;;14.10;9.23;;;;;;;;;;5043746;28;20259;-72
2023/12/04 11:08:34;;;;;;;14.10;9.33;;;;;;;;;;5037796;28;20235;-71
2023/12/04 11:11:08;;;;;;;14.70;10.13;;;;;;;;;;5034790;28;20202;-73
2023/12/04 11:13:43;;;;;;;17.17;13.20;;;;;;;;;;5045722;28;20633;-71
2023/12/04 11:16:15;;;;;;;20.67;16.47;;;;;;;;;;5040397;28;21618;-71
2023/12/04 11:18:44;;;;;;;25.23;20.30;;;;;;;;;;5034595;28;20277;-73
2023/12/04 11:21:12;;;;;;;35.63;29.97;;;;;;;;;;5019160;28;20207;-73
2023/12/04 11:23:40;;;;;;;15.73;12.20;;;;;;;;;;5044580;28;20656;-73
2023/12/04 11:26:08;;;;;;;13.83;9.57;;;;;;;;;;5037152;28;20203;-71
2023/12/04 11:28:38;;;;;;;13.03;9.60;;;;;;;;;;5042500;28;20244;-73
2023/12/04 11:31:05;;;;;;;16.40;10.87;;;;;;;;;;5041508;28;20198;-70
2023/12/04 11:33:39;;;;;;;17.83;11.53;;;;;;;;;;5036603;28;20288;-71
2023/12/04 11:36:08;;;;;;;16.63;12.03;;;;;;;;;;5033469;28;20355;-76
2023/12/04 11:38:43;;;;;;;14.17;9.27;;;;;;;;;;5037298;28;20297;-73
2023/12/04 11:41:19;;;;;;;13.50;9.50;;;;;;;;;;5040656;28;20211;-72
2023/12/04 11:43:52;;;;;;;12.97;8.33;;;;;;;;;;5028885;28;20202;-72
2023/12/04 11:46:23;;;;;;;14.20;9.27;;;;;;;;;;5032403;28;20822;-73
2023/12/04 11:48:51;;;;;;;12.87;9.60;;;;;;;;;;5050627;28;20230;-71
2023/12/04 11:51:37;;;;;;;13.37;9.63;;;;;;;;;;5043350;28;20203;-72
2023/12/04 11:54:04;;;;;;;15.00;9.53;;;;;;;;;;5045431;28;20206;-72
2023/12/04 11:56:32;;;;;;;15.57;10.07;;;;;;;;;;5046240;28;20554;-71
2023/12/04 11:59:06;;;;;;;19.60;12.70;;;;;;;;;;5047736;28;20964;-73
2023/12/04 12:01:34;;;;;;;13.13;8.87;;;;;;;;;;5043041;28;20213;-72
2023/12/04 12:04:02;;;;;;;12.70;9.53;;;;;;;;;;5035103;28;20210;-73
2023/12/04 12:06:29;;;;;;;13.00;9.20;;;;;;;;;;5051169;28;20670;-71
2023/12/04 12:08:57;;;;;;;11.87;9.17;;;;;;;;;;5021436;28;20243;-72
2023/12/04 12:11:26;;;;;;;13.53;9.60;;;;;;;;;;5044768;28;20202;-71
2023/12/04 12:13:53;;;;;;;12.63;9.60;;;;;;;;;;5041315;28;20542;-72
2023/12/04 12:16:21;;;;;;;13.90;9.67;;;;;;;;;;5034729;28;20249;-75
2023/12/04 12:18:49;;;;;;;13.00;9.57;;;;;;;;;;5042080;28;20233;-71
2023/12/04 12:21:17;;;;;;;15.90;10.17;;;;;;;;;;5025304;28;20349;-72
2023/12/04 12:23:46;;;;;;;13.73;10.60;;;;;;;;;;5042083;28;20283;-73
2023/12/04 12:26:13;;;;;;;14.07;10.13;;;;;;;;;;5039456;28;20459;-72
2023/12/04 12:28:40;;;;;;;15.00;10.63;;;;;;;;;;5043981;28;20233;-72
2023/12/04 12:31:08;;;;;;;13.23;9.00;;;;;;;;;;5052502;28;20265;-73
2023/12/04 12:33:35;;;;;;;14.40;9.40;;;;;;;;;;5043311;28;20201;-71
2023/12/04 12:36:03;;;;;;;12.43;9.33;;;;;;;;;;5048962;28;20265;-71
2023/12/04 12:38:35;;;;;;;16.53;10.27;;;;;;;;;;5038426;28;20321;-70
2023/12/04 12:41:07;;;;;;;14.83;10.80;;;;;;;;;;5047135;28;20268;-72
2023/12/04 12:43:35;;;;;;;21.63;12.90;;;;;;;;;;5050826;28;20654;-73
2023/12/04 12:46:05;;;;;;;20.27;13.23;;;;;;;;;;5052091;28;20220;-71
2023/12/04 12:48:32;;;;;;;21.63;13.50;;;;;;;;;;5044762;28;20234;-71
2023/12/04 12:51:02;;;;;;;17.40;12.60;;;;;;;;;;5036318;28;20245;-74
2023/12/04 12:53:32;;;;;;;18.67;12.77;;;;;;;;;;5042622;28;20575;-74
2023/12/04 12:56:01;;;;;;;13.57;10.40;;;;;;;;;;5030073;28;20214;-70
2023/12/04 12:58:28;;;;;;;11.53;9.07;;;;;;;;;;5048914;28;20222;-73
2023/12/04 13:00:56;;;;;;;13.17;9.67;;;;;;;;;;5043882;28;20677;-71
2023/12/04 13:03:23;;;;;;;13.97;10.60;;;;;;;;;;5047036;28;20205;-72
2023/12/04 13:05:51;;;;;;;13.97;9.60;;;;;;;;;;5043089;28;20274;-71
2023/12/04 13:08:18;;;;;;;15.77;10.43;;;;;;;;;;5045170;28;20252;-72
2023/12/04 13:10:46;;;;;;;17.30;11.07;;;;;;;;;;5049926;28;20225;-73
2023/12/04 13:13:14;;;;;;;14.23;10.43;;;;;;;;;;5044561;28;20241;-73
2023/12/04 13:15:42;;;;;;;19.03;12.10;;;;;;;;;;5030105;28;20232;-70
2023/12/04 13:18:10;;;;;;;20.27;13.63;;;;;;;;;;5045531;28;20236;-72
2023/12/04 13:20:37;;;;;;;18.17;11.40;;;;;;;;;;5048809;28;20251;-70
2023/12/04 13:23:06;;;;;;;17.63;11.00;;;;;;;;;;5043534;28;20205;-72
2023/12/04 13:25:33;;;;;;;19.07;12.23;;;;;;;;;;5026319;28;20674;-70
2023/12/04 13:28:01;;;;;;;19.87;12.23;;;;;;;;;;5047367;28;20225;-72
2023/12/04 13:30:28;;;;;;;19.20;11.43;;;;;;;;;;5032873;28;20689;-70
2023/12/04 13:32:55;;;;;;;41.60;22.83;;;;;;;;;;5041061;28;20676;-71
2023/12/04 13:35:23;;;;;;;25.17;14.20;;;;;;;;;;5044518;28;20198;-72
2023/12/04 13:37:55;;;;;;;24.33;15.43;;;;;;;;;;5044322;28;20236;-71
2023/12/04 13:40:26;;;;;;;27.47;15.70;;;;;;;;;;5049477;28;20588;-71
2023/12/04 13:45:41;;;;;;;25.63;13.93;;;;;;;;;;5048437;28;20206;-72
2023/12/04 13:48:08;;;;;;;27.03;16.20;;;;;;;;;;5036685;28;20317;-74
2023/12/04 13:50:36;;;;;;;28.50;17.83;;;;;;;;;;5047522;28;20670;-72
2023/12/04 13:53:05;;;;;;;25.77;14.90;;;;;;;;;;5043661;28;20205;-71
2023/12/04 14:01:13;;;;;;;19.50;12.07;;;;;;;;;;5039348;28;20236;-73
2023/12/04 14:03:42;;;;;;;21.30;12.07;;;;;;;;;;5041850;28;20233;-71
2023/12/04 14:06:10;;;;;;;18.80;12.70;;;;;;;;;;5043007;28;20296;-72
2023/12/04 14:08:38;;;;;;;17.73;11.70;;;;;;;;;;5030752;28;20239;-73
2023/12/04 14:11:05;;;;;;;13.80;9.97;;;;;;;;;;5042867;28;20207;-72
2023/12/04 14:13:33;;;;;;;16.53;10.60;;;;;;;;;;5037258;28;20195;-72
2023/12/04 14:16:02;;;;;;;16.60;10.77;;;;;;;;;;5042518;28;20224;-71
2023/12/04 14:18:30;;;;;;;12.47;9.00;;;;;;;;;;5036229;28;20234;-70
2023/12/04 14:20:57;;;;;;;18.83;11.23;;;;;;;;;;5042606;28;20666;-71
2023/12/04 14:23:25;;;;;;;17.80;10.47;;;;;;;;;;5041583;28;20233;-72
2023/12/04 14:25:52;;;;;;;20.20;13.20;;;;;;;;;;5026718;28;20209;-73
2023/12/04 14:28:20;;;;;;;22.07;14.03;;;;;;;;;;5040511;28;20816;-75
2023/12/04 14:30:56;;;;;;;28.67;16.73;;;;;;;;;;5042486;28;20201;-72
2023/12/04 14:33:23;;;;;;;17.10;11.37;;;;;;;;;;5019338;28;20212;-71
2023/12/04 14:35:50;;;;;;;18.10;11.63;;;;;;;;;;5042075;28;20253;-73
2023/12/04 14:38:18;;;;;;;19.43;12.93;;;;;;;;;;5037919;28;20249;-71